sensor_id;sensor_type;location;lat;lon;timestamp;temperature;humidity
75471;HTU21D;64051;46.320;48.028;2023-08-12T00:00:29;25.16;48.92
75471;HTU21D;64051;46.320;48.028;2023-08-12T00:02:55;25.15;48.96
75471;HTU21D;64051;46.320;48.028;2023-08-12T00:05:22;25.15;48.92
75471;HTU21D;64051;46.320;48.028;2023-08-12T00:07:48;25.15;48.86
75471;HTU21D;64051;46.320;48.028;2023-08-12T00:10:15;25.13;48.81
75471;HTU21D;64051;46.320;48.028;2023-08-12T00:12:41;25.12;48.79
75471;HTU21D;64051;46.320;48.028;2023-08-12T00:15:08;25.09;48.81
75471;HTU21D;64051;46.320;48.028;2023-08-12T00:17:34;25.08;48.76
75471;HTU21D;64051;46.320;48.028;2023-08-12T00:20:04;25.06;48.77
75471;HTU21D;64051;46.320;48.028;2023-08-12T00:22:34;25.03;48.71
75471;HTU21D;64051;46.320;48.028;2023-08-12T00:25:00;25.01;48.67
75471;HTU21D;64051;46.320;48.028;2023-08-12T00:27:26;24.97;48.67
75471;HTU21D;64051;46.320;48.028;2023-08-12T00:29:52;24.97;48.68
75471;HTU21D;64051;46.320;48.028;2023-08-12T00:32:18;24.94;48.65
75471;HTU21D;64051;46.320;48.028;2023-08-12T00:34:45;24.88;48.70
75471;HTU21D;64051;46.320;48.028;2023-08-12T00:37:11;24.87;48.70
75471;HTU21D;64051;46.320;48.028;2023-08-12T00:39:37;24.85;48.75
75471;HTU21D;64051;46.320;48.028;2023-08-12T00:42:03;24.82;48.73
75471;HTU21D;64051;46.320;48.028;2023-08-12T00:44:28;24.82;48.77
75471;HTU21D;64051;46.320;48.028;2023-08-12T00:46:54;24.79;48.82
75471;HTU21D;64051;46.320;48.028;2023-08-12T00:49:22;24.78;48.86
75471;HTU21D;64051;46.320;48.028;2023-08-12T00:51:50;24.76;48.86
75471;HTU21D;64051;46.320;48.028;2023-08-12T00:54:16;24.75;48.87
75471;HTU21D;64051;46.320;48.028;2023-08-12T00:56:43;24.73;48.86
75471;HTU21D;64051;46.320;48.028;2023-08-12T00:59:09;24.73;48.92
75471;HTU21D;64051;46.320;48.028;2023-08-12T01:01:39;24.70;49.00
75471;HTU21D;64051;46.320;48.028;2023-08-12T01:04:09;24.64;48.95
75471;HTU21D;64051;46.320;48.028;2023-08-12T01:06:35;24.62;48.99
75471;HTU21D;64051;46.320;48.028;2023-08-12T01:09:03;24.56;49.06
75471;HTU21D;64051;46.320;48.028;2023-08-12T01:11:44;24.49;49.35
75471;HTU21D;64051;46.320;48.028;2023-08-12T01:16:47;24.38;49.39
75471;HTU21D;64051;46.320;48.028;2023-08-12T01:19:35;24.33;49.72
75471;HTU21D;64051;46.320;48.028;2023-08-12T01:22:03;24.30;49.53
75471;HTU21D;64051;46.320;48.028;2023-08-12T01:24:38;24.28;49.74
75471;HTU21D;64051;46.320;48.028;2023-08-12T01:27:05;24.24;49.58
75471;HTU21D;64051;46.320;48.028;2023-08-12T01:29:32;24.19;49.65
75471;HTU21D;64051;46.320;48.028;2023-08-12T01:32:36;24.15;50.05
75471;HTU21D;64051;46.320;48.028;2023-08-12T01:35:09;24.15;49.89
75471;HTU21D;64051;46.320;48.028;2023-08-12T01:37:41;24.12;49.76
75471;HTU21D;64051;46.320;48.028;2023-08-12T01:40:09;24.12;49.89
75471;HTU21D;64051;46.320;48.028;2023-08-12T01:42:36;24.13;49.83
75471;HTU21D;64051;46.320;48.028;2023-08-12T01:45:04;24.14;49.82
75471;HTU21D;64051;46.320;48.028;2023-08-12T01:47:31;24.16;49.89
75471;HTU21D;64051;46.320;48.028;2023-08-12T01:49:58;24.17;49.86
75471;HTU21D;64051;46.320;48.028;2023-08-12T01:52:24;24.18;49.84
75471;HTU21D;64051;46.320;48.028;2023-08-12T01:54:50;24.20;49.87
75471;HTU21D;64051;46.320;48.028;2023-08-12T01:57:16;24.20;49.81
75471;HTU21D;64051;46.320;48.028;2023-08-12T01:59:43;24.17;49.84
75471;HTU21D;64051;46.320;48.028;2023-08-12T02:02:12;24.19;49.82
75471;HTU21D;64051;46.320;48.028;2023-08-12T02:04:39;24.19;49.78
75471;HTU21D;64051;46.320;48.028;2023-08-12T02:07:06;24.19;49.69
75471;HTU21D;64051;46.320;48.028;2023-08-12T02:09:31;24.20;49.73
75471;HTU21D;64051;46.320;48.028;2023-08-12T02:11:57;24.20;49.69
75471;HTU21D;64051;46.320;48.028;2023-08-12T02:14:23;24.24;49.63
75471;HTU21D;64051;46.320;48.028;2023-08-12T02:16:49;24.25;49.57
75471;HTU21D;64051;46.320;48.028;2023-08-12T02:19:15;24.26;49.60
75471;HTU21D;64051;46.320;48.028;2023-08-12T02:21:42;24.31;49.54
75471;HTU21D;64051;46.320;48.028;2023-08-12T02:24:08;24.39;49.47
75471;HTU21D;64051;46.320;48.028;2023-08-12T02:26:37;24.46;49.39
75471;HTU21D;64051;46.320;48.028;2023-08-12T02:29:03;24.56;49.27
75471;HTU21D;64051;46.320;48.028;2023-08-12T02:31:29;24.63;49.12
75471;HTU21D;64051;46.320;48.028;2023-08-12T02:33:55;24.73;48.99
75471;HTU21D;64051;46.320;48.028;2023-08-12T02:36:21;24.82;48.89
75471;HTU21D;64051;46.320;48.028;2023-08-12T02:38:47;24.88;48.73
75471;HTU21D;64051;46.320;48.028;2023-08-12T02:41:13;24.95;48.58
75471;HTU21D;64051;46.320;48.028;2023-08-12T02:43:39;25.04;48.53
75471;HTU21D;64051;46.320;48.028;2023-08-12T02:46:05;25.15;48.43
75471;HTU21D;64051;46.320;48.028;2023-08-12T02:48:31;25.24;48.30
75471;HTU21D;64051;46.320;48.028;2023-08-12T02:50:57;25.31;48.12
75471;HTU21D;64051;46.320;48.028;2023-08-12T02:53:23;25.37;48.03
75471;HTU21D;64051;46.320;48.028;2023-08-12T02:55:49;25.44;47.95
75471;HTU21D;64051;46.320;48.028;2023-08-12T02:58:15;25.51;47.91
75471;HTU21D;64051;46.320;48.028;2023-08-12T03:00:41;25.60;47.79
75471;HTU21D;64051;46.320;48.028;2023-08-12T03:03:09;25.66;47.64
75471;HTU21D;64051;46.320;48.028;2023-08-12T03:05:35;25.74;47.51
75471;HTU21D;64051;46.320;48.028;2023-08-12T03:08:04;25.81;47.44
75471;HTU21D;64051;46.320;48.028;2023-08-12T03:10:30;25.89;47.30
75471;HTU21D;64051;46.320;48.028;2023-08-12T03:12:56;25.92;47.18
75471;HTU21D;64051;46.320;48.028;2023-08-12T03:15:22;25.99;47.03
75471;HTU21D;64051;46.320;48.028;2023-08-12T03:17:49;26.06;46.81
75471;HTU21D;64051;46.320;48.028;2023-08-12T03:20:16;26.11;46.58
75471;HTU21D;64051;46.320;48.028;2023-08-12T03:22:42;26.22;46.44
75471;HTU21D;64051;46.320;48.028;2023-08-12T03:25:08;26.33;46.20
75471;HTU21D;64051;46.320;48.028;2023-08-12T03:27:38;26.45;45.93
75471;HTU21D;64051;46.320;48.028;2023-08-12T03:30:08;26.55;45.74
75471;HTU21D;64051;46.320;48.028;2023-08-12T03:32:34;26.66;45.54
75471;HTU21D;64051;46.320;48.028;2023-08-12T03:35:01;26.73;45.37
75471;HTU21D;64051;46.320;48.028;2023-08-12T03:37:27;26.81;45.14
75471;HTU21D;64051;46.320;48.028;2023-08-12T03:39:54;26.85;44.90
75471;HTU21D;64051;46.320;48.028;2023-08-12T03:42:20;26.91;44.77
75471;HTU21D;64051;46.320;48.028;2023-08-12T03:44:47;26.97;44.55
75471;HTU21D;64051;46.320;48.028;2023-08-12T03:47:13;27.05;44.35
75471;HTU21D;64051;46.320;48.028;2023-08-12T03:49:39;27.11;44.05
75471;HTU21D;64051;46.320;48.028;2023-08-12T03:52:06;27.19;43.75
75471;HTU21D;64051;46.320;48.028;2023-08-12T03:54:33;27.25;43.58
75471;HTU21D;64051;46.320;48.028;2023-08-12T03:57:00;27.32;43.37
75471;HTU21D;64051;46.320;48.028;2023-08-12T03:59:28;27.40;43.20
75471;HTU21D;64051;46.320;48.028;2023-08-12T04:01:59;27.46;42.98
75471;HTU21D;64051;46.320;48.028;2023-08-12T04:04:27;27.52;42.81
75471;HTU21D;64051;46.320;48.028;2023-08-12T04:06:53;27.58;42.74
75471;HTU21D;64051;46.320;48.028;2023-08-12T04:09:19;27.66;42.54
75471;HTU21D;64051;46.320;48.028;2023-08-12T04:11:46;27.73;42.35
75471;HTU21D;64051;46.320;48.028;2023-08-12T04:14:13;27.81;42.13
75471;HTU21D;64051;46.320;48.028;2023-08-12T04:16:42;27.89;42.00
75471;HTU21D;64051;46.320;48.028;2023-08-12T04:19:08;27.98;41.95
75471;HTU21D;64051;46.320;48.028;2023-08-12T04:21:41;28.06;41.87
75471;HTU21D;64051;46.320;48.028;2023-08-12T04:24:12;28.17;41.79
75471;HTU21D;64051;46.320;48.028;2023-08-12T04:26:40;28.27;41.65
75471;HTU21D;64051;46.320;48.028;2023-08-12T04:29:06;28.39;41.57
75471;HTU21D;64051;46.320;48.028;2023-08-12T04:31:37;28.50;41.50
75471;HTU21D;64051;46.320;48.028;2023-08-12T04:34:03;28.62;41.47
75471;HTU21D;64051;46.320;48.028;2023-08-12T04:36:32;28.74;41.49
75471;HTU21D;64051;46.320;48.028;2023-08-12T04:38:59;28.86;41.49
75471;HTU21D;64051;46.320;48.028;2023-08-12T04:41:26;28.97;41.53
75471;HTU21D;64051;46.320;48.028;2023-08-12T04:43:53;29.07;41.55
75471;HTU21D;64051;46.320;48.028;2023-08-12T04:46:22;29.20;41.62
75471;HTU21D;64051;46.320;48.028;2023-08-12T04:48:48;29.33;41.55
75471;HTU21D;64051;46.320;48.028;2023-08-12T04:51:20;29.44;41.54
75471;HTU21D;64051;46.320;48.028;2023-08-12T04:53:49;29.56;41.52
75471;HTU21D;64051;46.320;48.028;2023-08-12T04:56:15;29.67;41.44
75471;HTU21D;64051;46.320;48.028;2023-08-12T04:58:41;29.78;41.36
75471;HTU21D;64051;46.320;48.028;2023-08-12T05:01:09;29.87;41.33
75471;HTU21D;64051;46.320;48.028;2023-08-12T05:03:37;29.95;41.33
75471;HTU21D;64051;46.320;48.028;2023-08-12T05:06:03;30.07;41.26
75471;HTU21D;64051;46.320;48.028;2023-08-12T05:08:31;30.20;41.20
75471;HTU21D;64051;46.320;48.028;2023-08-12T05:11:00;30.32;41.16
75471;HTU21D;64051;46.320;48.028;2023-08-12T05:13:29;30.42;41.07
75471;HTU21D;64051;46.320;48.028;2023-08-12T05:15:55;30.51;41.02
75471;HTU21D;64051;46.320;48.028;2023-08-12T05:18:22;30.62;41.01
75471;HTU21D;64051;46.320;48.028;2023-08-12T05:20:52;30.71;40.98
75471;HTU21D;64051;46.320;48.028;2023-08-12T05:23:20;30.83;40.94
75471;HTU21D;64051;46.320;48.028;2023-08-12T05:25:46;30.94;40.97
75471;HTU21D;64051;46.320;48.028;2023-08-12T05:28:12;31.06;41.01
75471;HTU21D;64051;46.320;48.028;2023-08-12T05:30:38;31.18;40.88
75471;HTU21D;64051;46.320;48.028;2023-08-12T05:33:05;31.29;40.78
75471;HTU21D;64051;46.320;48.028;2023-08-12T05:35:35;31.42;40.72
75471;HTU21D;64051;46.320;48.028;2023-08-12T05:38:01;31.53;40.65
75471;HTU21D;64051;46.320;48.028;2023-08-12T05:40:28;31.66;40.65
75471;HTU21D;64051;46.320;48.028;2023-08-12T05:42:54;31.76;40.57
75471;HTU21D;64051;46.320;48.028;2023-08-12T05:45:23;31.88;40.39
75471;HTU21D;64051;46.320;48.028;2023-08-12T05:47:52;32.02;40.13
75471;HTU21D;64051;46.320;48.028;2023-08-12T05:50:18;32.13;39.86
75471;HTU21D;64051;46.320;48.028;2023-08-12T05:52:44;32.22;39.71
75471;HTU21D;64051;46.320;48.028;2023-08-12T05:55:10;32.34;39.56
75471;HTU21D;64051;46.320;48.028;2023-08-12T05:57:35;32.47;39.36
75471;HTU21D;64051;46.320;48.028;2023-08-12T06:00:02;32.60;39.12
75471;HTU21D;64051;46.320;48.028;2023-08-12T06:02:37;32.69;38.85
75471;HTU21D;64051;46.320;48.028;2023-08-12T06:05:07;32.75;38.41
75471;HTU21D;64051;46.320;48.028;2023-08-12T06:07:33;32.82;38.06
75471;HTU21D;64051;46.320;48.028;2023-08-12T06:10:05;32.89;37.79
75471;HTU21D;64051;46.320;48.028;2023-08-12T06:12:31;32.97;37.62
75471;HTU21D;64051;46.320;48.028;2023-08-12T06:14:59;33.05;37.46
75471;HTU21D;64051;46.320;48.028;2023-08-12T06:17:26;33.13;37.29
75471;HTU21D;64051;46.320;48.028;2023-08-12T06:19:52;33.22;37.16
75471;HTU21D;64051;46.320;48.028;2023-08-12T06:22:18;33.31;37.06
75471;HTU21D;64051;46.320;48.028;2023-08-12T06:24:44;33.41;36.95
75471;HTU21D;64051;46.320;48.028;2023-08-12T06:27:13;33.52;36.90
75471;HTU21D;64051;46.320;48.028;2023-08-12T06:29:39;33.66;36.85
75471;HTU21D;64051;46.320;48.028;2023-08-12T06:32:08;33.74;36.57
75471;HTU21D;64051;46.320;48.028;2023-08-12T06:34:38;33.82;36.52
75471;HTU21D;64051;46.320;48.028;2023-08-12T06:37:04;33.89;36.43
75471;HTU21D;64051;46.320;48.028;2023-08-12T06:39:32;33.99;36.30
75471;HTU21D;64051;46.320;48.028;2023-08-12T06:41:57;34.05;36.13
75471;HTU21D;64051;46.320;48.028;2023-08-12T06:44:25;34.14;35.99
75471;HTU21D;64051;46.320;48.028;2023-08-12T06:46:50;34.23;36.00
75471;HTU21D;64051;46.320;48.028;2023-08-12T06:49:19;34.34;35.94
75471;HTU21D;64051;46.320;48.028;2023-08-12T06:51:45;34.44;35.73
75471;HTU21D;64051;46.320;48.028;2023-08-12T06:54:11;34.53;35.56
75471;HTU21D;64051;46.320;48.028;2023-08-12T06:56:37;34.61;35.50
75471;HTU21D;64051;46.320;48.028;2023-08-12T06:59:06;34.70;35.26
75471;HTU21D;64051;46.320;48.028;2023-08-12T07:01:32;34.81;35.11
75471;HTU21D;64051;46.320;48.028;2023-08-12T07:03:59;34.91;34.91
75471;HTU21D;64051;46.320;48.028;2023-08-12T07:06:28;35.04;34.52
75471;HTU21D;64051;46.320;48.028;2023-08-12T07:08:54;35.15;34.43
75471;HTU21D;64051;46.320;48.028;2023-08-12T07:11:21;35.25;34.16
75471;HTU21D;64051;46.320;48.028;2023-08-12T07:13:47;35.35;33.88
75471;HTU21D;64051;46.320;48.028;2023-08-12T07:16:13;35.47;33.68
75471;HTU21D;64051;46.320;48.028;2023-08-12T07:18:42;35.54;33.54
75471;HTU21D;64051;46.320;48.028;2023-08-12T07:21:14;35.64;33.25
75471;HTU21D;64051;46.320;48.028;2023-08-12T07:23:42;35.70;33.02
75471;HTU21D;64051;46.320;48.028;2023-08-12T07:26:08;35.75;32.89
75471;HTU21D;64051;46.320;48.028;2023-08-12T07:28:37;35.84;32.66
75471;HTU21D;64051;46.320;48.028;2023-08-12T07:31:03;35.92;32.57
75471;HTU21D;64051;46.320;48.028;2023-08-12T07:33:32;35.98;32.01
75471;HTU21D;64051;46.320;48.028;2023-08-12T07:35:58;36.02;31.89
75471;HTU21D;64051;46.320;48.028;2023-08-12T07:38:25;36.03;31.70
75471;HTU21D;64051;46.320;48.028;2023-08-12T07:40:50;36.11;31.64
75471;HTU21D;64051;46.320;48.028;2023-08-12T07:43:16;36.18;31.47
75471;HTU21D;64051;46.320;48.028;2023-08-12T07:45:42;36.28;31.16
75471;HTU21D;64051;46.320;48.028;2023-08-12T07:48:08;36.33;30.98
75471;HTU21D;64051;46.320;48.028;2023-08-12T07:50:37;36.43;30.83
75471;HTU21D;64051;46.320;48.028;2023-08-12T07:53:03;36.53;30.71
75471;HTU21D;64051;46.320;48.028;2023-08-12T07:55:35;36.64;30.45
75471;HTU21D;64051;46.320;48.028;2023-08-12T07:58:01;36.75;29.90
75471;HTU21D;64051;46.320;48.028;2023-08-12T08:00:27;36.85;30.48
75471;HTU21D;64051;46.320;48.028;2023-08-12T08:02:53;36.92;30.16
75471;HTU21D;64051;46.320;48.028;2023-08-12T08:05:22;37.00;30.05
75471;HTU21D;64051;46.320;48.028;2023-08-12T08:07:50;37.08;29.76
75471;HTU21D;64051;46.320;48.028;2023-08-12T08:10:16;37.16;29.88
75471;HTU21D;64051;46.320;48.028;2023-08-12T08:12:42;37.20;29.70
75471;HTU21D;64051;46.320;48.028;2023-08-12T08:15:15;37.25;29.48
75471;HTU21D;64051;46.320;48.028;2023-08-12T08:17:41;37.27;29.48
75471;HTU21D;64051;46.320;48.028;2023-08-12T08:20:07;37.30;29.30
75471;HTU21D;64051;46.320;48.028;2023-08-12T08:22:33;37.32;29.12
75471;HTU21D;64051;46.320;48.028;2023-08-12T08:25:02;37.36;28.91
75471;HTU21D;64051;46.320;48.028;2023-08-12T08:27:33;37.42;28.90
75471;HTU21D;64051;46.320;48.028;2023-08-12T08:29:59;37.49;28.67
75471;HTU21D;64051;46.320;48.028;2023-08-12T08:32:25;37.56;28.50
75471;HTU21D;64051;46.320;48.028;2023-08-12T08:34:51;37.61;28.45
75471;HTU21D;64051;46.320;48.028;2023-08-12T08:37:17;37.69;28.38
75471;HTU21D;64051;46.320;48.028;2023-08-12T08:39:53;37.77;27.88
75471;HTU21D;64051;46.320;48.028;2023-08-12T08:42:20;37.80;27.86
75471;HTU21D;64051;46.320;48.028;2023-08-12T08:44:49;37.80;27.80
75471;HTU21D;64051;46.320;48.028;2023-08-12T08:47:19;37.85;27.59
75471;HTU21D;64051;46.320;48.028;2023-08-12T08:49:49;37.88;25.65
75471;HTU21D;64051;46.320;48.028;2023-08-12T08:52:16;37.89;27.55
75471;HTU21D;64051;46.320;48.028;2023-08-12T08:54:47;37.92;27.42
75471;HTU21D;64051;46.320;48.028;2023-08-12T08:57:16;37.97;27.19
75471;HTU21D;64051;46.320;48.028;2023-08-12T08:59:42;38.02;27.09
75471;HTU21D;64051;46.320;48.028;2023-08-12T09:02:16;38.07;26.87
75471;HTU21D;64051;46.320;48.028;2023-08-12T09:04:47;38.15;26.89
75471;HTU21D;64051;46.320;48.028;2023-08-12T09:07:13;38.20;26.75
75471;HTU21D;64051;46.320;48.028;2023-08-12T09:09:45;38.25;26.47
75471;HTU21D;64051;46.320;48.028;2023-08-12T09:12:18;38.30;26.44
75471;HTU21D;64051;46.320;48.028;2023-08-12T09:14:45;38.37;26.24
75471;HTU21D;64051;46.320;48.028;2023-08-12T09:17:11;38.40;25.95
75471;HTU21D;64051;46.320;48.028;2023-08-12T09:20:05;38.44;25.31
75471;HTU21D;64051;46.320;48.028;2023-08-12T09:22:38;38.44;25.58
75471;HTU21D;64051;46.320;48.028;2023-08-12T09:25:04;38.45;25.53
75471;HTU21D;64051;46.320;48.028;2023-08-12T09:27:31;38.46;25.46
75471;HTU21D;64051;46.320;48.028;2023-08-12T09:29:58;38.48;25.31
75471;HTU21D;64051;46.320;48.028;2023-08-12T09:32:27;38.49;25.23
75471;HTU21D;64051;46.320;48.028;2023-08-12T09:34:54;38.52;25.15
75471;HTU21D;64051;46.320;48.028;2023-08-12T09:37:23;38.52;25.01
75471;HTU21D;64051;46.320;48.028;2023-08-12T09:39:51;38.54;24.80
75471;HTU21D;64051;46.320;48.028;2023-08-12T09:42:18;38.53;24.70
75471;HTU21D;64051;46.320;48.028;2023-08-12T09:44:44;38.55;24.66
75471;HTU21D;64051;46.320;48.028;2023-08-12T09:47:12;38.58;24.61
75471;HTU21D;64051;46.320;48.028;2023-08-12T09:49:39;38.59;24.48
75471;HTU21D;64051;46.320;48.028;2023-08-12T09:52:08;38.61;24.27
75471;HTU21D;64051;46.320;48.028;2023-08-12T09:54:35;38.63;24.29
75471;HTU21D;64051;46.320;48.028;2023-08-12T09:57:05;38.64;24.33
75471;HTU21D;64051;46.320;48.028;2023-08-12T09:59:35;38.63;24.32
75471;HTU21D;64051;46.320;48.028;2023-08-12T10:02:05;38.68;24.14
75471;HTU21D;64051;46.320;48.028;2023-08-12T10:04:37;38.70;24.05
75471;HTU21D;64051;46.320;48.028;2023-08-12T10:07:09;38.70;24.17
75471;HTU21D;64051;46.320;48.028;2023-08-12T10:09:36;38.70;24.18
75471;HTU21D;64051;46.320;48.028;2023-08-12T10:12:04;38.71;24.07
75471;HTU21D;64051;46.320;48.028;2023-08-12T10:14:31;38.71;24.09
75471;HTU21D;64051;46.320;48.028;2023-08-12T10:16:58;38.69;24.11
75471;HTU21D;64051;46.320;48.028;2023-08-12T10:19:28;38.69;24.16
75471;HTU21D;64051;46.320;48.028;2023-08-12T10:21:56;38.71;24.00
75471;HTU21D;64051;46.320;48.028;2023-08-12T10:24:26;38.74;23.91
75471;HTU21D;64051;46.320;48.028;2023-08-12T10:26:53;38.74;23.91
75471;HTU21D;64051;46.320;48.028;2023-08-12T10:29:20;38.75;23.93
75471;HTU21D;64051;46.320;48.028;2023-08-12T10:31:51;38.73;23.93
75471;HTU21D;64051;46.320;48.028;2023-08-12T10:34:27;38.74;23.68
75471;HTU21D;64051;46.320;48.028;2023-08-12T10:37:02;38.71;23.88
75471;HTU21D;64051;46.320;48.028;2023-08-12T10:39:37;38.71;24.06
75471;HTU21D;64051;46.320;48.028;2023-08-12T10:42:04;38.77;24.27
75471;HTU21D;64051;46.320;48.028;2023-08-12T10:44:49;38.85;24.17
75471;HTU21D;64051;46.320;48.028;2023-08-12T10:47:22;38.84;24.20
75471;HTU21D;64051;46.320;48.028;2023-08-12T10:49:50;38.88;23.96
75471;HTU21D;64051;46.320;48.028;2023-08-12T10:52:31;38.86;23.85
75471;HTU21D;64051;46.320;48.028;2023-08-12T10:57:45;38.80;23.70
75471;HTU21D;64051;46.320;48.028;2023-08-12T11:00:19;38.76;23.63
75471;HTU21D;64051;46.320;48.028;2023-08-12T11:02:50;38.70;23.62
75471;HTU21D;64051;46.320;48.028;2023-08-12T11:05:20;38.64;23.69
75471;HTU21D;64051;46.320;48.028;2023-08-12T11:07:55;38.60;23.57
75471;HTU21D;64051;46.320;48.028;2023-08-12T11:10:28;38.61;23.54
75471;HTU21D;64051;46.320;48.028;2023-08-12T11:12:57;38.54;23.43
75471;HTU21D;64051;46.320;48.028;2023-08-12T11:15:30;38.52;23.20
75471;HTU21D;64051;46.320;48.028;2023-08-12T11:18:09;38.48;23.21
75471;HTU21D;64051;46.320;48.028;2023-08-12T11:20:36;38.44;23.42
75471;HTU21D;64051;46.320;48.028;2023-08-12T11:23:07;38.45;23.43
75471;HTU21D;64051;46.320;48.028;2023-08-12T11:25:38;38.46;23.41
75471;HTU21D;64051;46.320;48.028;2023-08-12T11:28:06;38.47;23.43
75471;HTU21D;64051;46.320;48.028;2023-08-12T11:30:32;38.46;23.44
75471;HTU21D;64051;46.320;48.028;2023-08-12T11:32:59;38.43;23.43
75471;HTU21D;64051;46.320;48.028;2023-08-12T11:35:28;38.38;23.42
75471;HTU21D;64051;46.320;48.028;2023-08-12T11:37:56;38.32;23.35
75471;HTU21D;64051;46.320;48.028;2023-08-12T11:40:24;38.25;23.42
75471;HTU21D;64051;46.320;48.028;2023-08-12T11:42:51;38.20;23.41
75471;HTU21D;64051;46.320;48.028;2023-08-12T11:45:19;38.08;23.42
75471;HTU21D;64051;46.320;48.028;2023-08-12T11:47:45;37.97;23.51
75471;HTU21D;64051;46.320;48.028;2023-08-12T11:50:22;37.85;23.50
75471;HTU21D;64051;46.320;48.028;2023-08-12T11:52:50;37.70;23.50
75471;HTU21D;64051;46.320;48.028;2023-08-12T11:55:16;37.56;23.59
75471;HTU21D;64051;46.320;48.028;2023-08-12T11:57:45;37.43;23.72
75471;HTU21D;64051;46.320;48.028;2023-08-12T12:00:13;37.36;23.85
75471;HTU21D;64051;46.320;48.028;2023-08-12T12:02:49;37.31;24.02
75471;HTU21D;64051;46.320;48.028;2023-08-12T12:05:27;37.32;24.11
75471;HTU21D;64051;46.320;48.028;2023-08-12T12:07:58;37.35;24.25
75471;HTU21D;64051;46.320;48.028;2023-08-12T12:10:29;37.44;24.17
75471;HTU21D;64051;46.320;48.028;2023-08-12T12:13:00;37.51;24.28
75471;HTU21D;64051;46.320;48.028;2023-08-12T12:15:35;37.60;24.27
75471;HTU21D;64051;46.320;48.028;2023-08-12T12:18:10;37.66;24.23
75471;HTU21D;64051;46.320;48.028;2023-08-12T12:20:36;37.72;24.36
75471;HTU21D;64051;46.320;48.028;2023-08-12T12:23:06;37.76;24.30
75471;HTU21D;64051;46.320;48.028;2023-08-12T12:25:33;37.81;24.21
75471;HTU21D;64051;46.320;48.028;2023-08-12T12:28:03;37.82;24.20
75471;HTU21D;64051;46.320;48.028;2023-08-12T12:30:32;37.77;24.17
75471;HTU21D;64051;46.320;48.028;2023-08-12T12:32:58;37.71;24.23
75471;HTU21D;64051;46.320;48.028;2023-08-12T12:35:26;37.63;24.30
75471;HTU21D;64051;46.320;48.028;2023-08-12T12:37:55;37.55;24.33
75471;HTU21D;64051;46.320;48.028;2023-08-12T12:40:27;37.43;24.46
75471;HTU21D;64051;46.320;48.028;2023-08-12T12:42:52;37.37;24.55
75471;HTU21D;64051;46.320;48.028;2023-08-12T12:45:18;37.37;24.65
75471;HTU21D;64051;46.320;48.028;2023-08-12T12:47:50;37.38;24.78
75471;HTU21D;64051;46.320;48.028;2023-08-12T12:50:16;37.41;24.88
75471;HTU21D;64051;46.320;48.028;2023-08-12T12:52:51;37.43;25.01
75471;HTU21D;64051;46.320;48.028;2023-08-12T12:55:20;37.42;25.11
75471;HTU21D;64051;46.320;48.028;2023-08-12T12:57:46;37.40;25.14
75471;HTU21D;64051;46.320;48.028;2023-08-12T13:00:15;37.36;25.31
75471;HTU21D;64051;46.320;48.028;2023-08-12T13:02:41;37.31;25.50
75471;HTU21D;64051;46.320;48.028;2023-08-12T13:05:07;37.28;25.72
75471;HTU21D;64051;46.320;48.028;2023-08-12T13:07:37;37.23;25.91
75471;HTU21D;64051;46.320;48.028;2023-08-12T13:10:03;37.17;25.94
75471;HTU21D;64051;46.320;48.028;2023-08-12T13:12:29;37.11;26.03
75471;HTU21D;64051;46.320;48.028;2023-08-12T13:14:55;37.03;26.15
75471;HTU21D;64051;46.320;48.028;2023-08-12T13:17:21;36.97;26.31
75471;HTU21D;64051;46.320;48.028;2023-08-12T13:19:47;36.89;26.40
75471;HTU21D;64051;46.320;48.028;2023-08-12T13:22:18;36.82;26.49
75471;HTU21D;64051;46.320;48.028;2023-08-12T13:24:44;36.71;26.58
75471;HTU21D;64051;46.320;48.028;2023-08-12T13:27:10;36.66;26.61
75471;HTU21D;64051;46.320;48.028;2023-08-12T13:29:39;36.61;26.71
75471;HTU21D;64051;46.320;48.028;2023-08-12T13:32:05;36.56;26.78
75471;HTU21D;64051;46.320;48.028;2023-08-12T13:34:35;36.54;26.86
75471;HTU21D;64051;46.320;48.028;2023-08-12T13:37:01;36.52;26.94
75471;HTU21D;64051;46.320;48.028;2023-08-12T13:39:27;36.52;27.05
75471;HTU21D;64051;46.320;48.028;2023-08-12T13:41:52;36.49;27.14
75471;HTU21D;64051;46.320;48.028;2023-08-12T13:44:23;36.46;27.18
75471;HTU21D;64051;46.320;48.028;2023-08-12T13:47:04;36.40;27.11
75471;HTU21D;64051;46.320;48.028;2023-08-12T13:49:32;36.32;27.08
75471;HTU21D;64051;46.320;48.028;2023-08-12T13:51:58;36.25;26.85
75471;HTU21D;64051;46.320;48.028;2023-08-12T13:54:28;36.17;26.71
75471;HTU21D;64051;46.320;48.028;2023-08-12T13:56:53;36.11;26.66
75471;HTU21D;64051;46.320;48.028;2023-08-12T13:59:19;36.02;26.62
75471;HTU21D;64051;46.320;48.028;2023-08-12T14:01:50;35.95;26.68
75471;HTU21D;64051;46.320;48.028;2023-08-12T14:04:16;35.86;26.65
75471;HTU21D;64051;46.320;48.028;2023-08-12T14:06:45;35.79;26.69
75471;HTU21D;64051;46.320;48.028;2023-08-12T14:09:11;35.70;26.84
75471;HTU21D;64051;46.320;48.028;2023-08-12T14:11:39;35.63;27.09
75471;HTU21D;64051;46.320;48.028;2023-08-12T14:14:08;35.55;27.41
75471;HTU21D;64051;46.320;48.028;2023-08-12T14:19:36;35.24;27.92
75471;HTU21D;64051;46.320;48.028;2023-08-12T14:22:03;35.10;28.22
75471;HTU21D;64051;46.320;48.028;2023-08-12T14:24:29;34.95;28.52
75471;HTU21D;64051;46.320;48.028;2023-08-12T14:26:55;34.79;28.81
75471;HTU21D;64051;46.320;48.028;2023-08-12T14:29:27;34.66;29.27
75471;HTU21D;64051;46.320;48.028;2023-08-12T14:31:53;34.52;29.48
75471;HTU21D;64051;46.320;48.028;2023-08-12T14:34:19;34.38;29.80
75471;HTU21D;64051;46.320;48.028;2023-08-12T14:36:47;34.27;30.20
75471;HTU21D;64051;46.320;48.028;2023-08-12T14:39:13;34.17;30.55
75471;HTU21D;64051;46.320;48.028;2023-08-12T14:41:39;34.05;30.93
75471;HTU21D;64051;46.320;48.028;2023-08-12T14:44:05;33.93;31.21
75471;HTU21D;64051;46.320;48.028;2023-08-12T14:46:31;33.81;31.47
75471;HTU21D;64051;46.320;48.028;2023-08-12T14:48:57;33.71;31.70
75471;HTU21D;64051;46.320;48.028;2023-08-12T14:51:23;33.60;31.96
75471;HTU21D;64051;46.320;48.028;2023-08-12T14:53:49;33.49;32.12
75471;HTU21D;64051;46.320;48.028;2023-08-12T14:56:21;33.41;32.29
75471;HTU21D;64051;46.320;48.028;2023-08-12T14:58:50;33.29;32.44
75471;HTU21D;64051;46.320;48.028;2023-08-12T15:01:16;33.20;32.67
75471;HTU21D;64051;46.320;48.028;2023-08-12T15:03:42;33.08;32.89
75471;HTU21D;64051;46.320;48.028;2023-08-12T15:06:12;33.00;33.09
75471;HTU21D;64051;46.320;48.028;2023-08-12T15:08:39;32.91;33.31
75471;HTU21D;64051;46.320;48.028;2023-08-12T15:11:07;32.83;33.57
75471;HTU21D;64051;46.320;48.028;2023-08-12T15:13:33;32.73;33.77
75471;HTU21D;64051;46.320;48.028;2023-08-12T15:16:01;32.66;34.02